Time;durP1;ratioP1;P1;durP2;ratioP2;P2;SDS_P1;SDS_P2;PMS_P1;PMS_P2;Temp;Humidity;BMP_temperature;BMP_pressure;BME280_temperature;BME280_humidity;BME280_pressure;Samples;Min_cycle;Max_cycle;Signal;HPM_P1;HPM_P2
2021/05/30 00:01:08;;;;;;;16.27;11.83;;;;;;;9.29;70.94;99220.61;2178626;81;21030;-79
2021/05/30 00:04:09;;;;;;;17.70;12.10;;;;;;;9.25;71.39;99223.56;2178793;81;21373;-77
2021/05/30 00:07:10;;;;;;;15.27;12.63;;;;;;;9.19;71.19;99221.70;2178555;82;21089;-77
2021/05/30 00:10:11;;;;;;;20.97;12.73;;;;;;;9.17;71.91;99223.39;2178545;81;20981;-78
2021/05/30 00:13:12;;;;;;;16.40;11.60;;;;;;;9.14;71.52;99229.83;2178786;81;21029;-78
2021/05/30 00:16:13;;;;;;;16.57;12.93;;;;;;;9.10;71.36;99225.81;2178638;81;21061;-80
2021/05/30 00:19:14;;;;;;;18.57;13.67;;;;;;;9.08;71.81;99228.38;2178643;82;21342;-80
2021/05/30 00:22:15;;;;;;;18.93;13.47;;;;;;;9.04;72.32;99222.64;2178819;81;21017;-79
2021/05/30 00:25:16;;;;;;;21.13;13.43;;;;;;;9.00;72.73;99223.84;2178585;82;21460;-77
2021/05/30 00:28:17;;;;;;;18.50;13.20;;;;;;;8.94;72.33;99224.56;2178548;81;21014;-79
2021/05/30 00:31:18;;;;;;;247.33;178.43;;;;;;;8.88;73.64;99222.69;2179108;82;20950;-81
2021/05/30 00:34:19;;;;;;;49.87;36.33;;;;;;;11.87;78.95;99219.27;2178549;81;20985;-77
2021/05/30 00:37:21;;;;;;;19.13;15.70;;;;;;;13.47;68.17;99209.06;2151069;82;21090;-78
2021/05/30 00:40:23;;;;;;;15.63;12.37;;;;;;;12.63;65.16;99217.95;2178589;82;21045;-79
2021/05/30 00:43:23;;;;;;;16.87;11.13;;;;;;;11.71;65.35;99225.13;2178622;82;20993;-77
2021/05/30 00:46:25;;;;;;;16.03;12.33;;;;;;;10.97;66.17;99230.09;2178493;82;20966;-78
2021/05/30 00:49:25;;;;;;;14.20;10.67;;;;;;;10.48;66.66;99228.82;2178611;82;20981;-79
2021/05/30 00:52:26;;;;;;;17.43;11.37;;;;;;;10.06;66.83;99226.21;2178516;81;21346;-78
2021/05/30 00:55:27;;;;;;;15.70;12.43;;;;;;;9.75;67.98;99229.05;2178304;81;21418;-80
2021/05/30 00:58:28;;;;;;;13.13;10.40;;;;;;;9.48;68.90;99232.78;2178806;81;21014;-80
2021/05/30 01:01:29;;;;;;;11.57;10.10;;;;;;;9.27;68.91;99227.08;2178616;81;21397;-79
2021/05/30 01:04:30;;;;;;;18.03;12.80;;;;;;;9.13;69.03;99225.88;2178665;81;21029;-77
2021/05/30 01:07:36;;;;;;;15.53;11.77;;;;;;;8.97;69.97;99227.24;2178639;81;21069;-77
2021/05/30 01:10:35;;;;;;;12.33;10.63;;;;;;;8.90;69.96;99231.84;2177985;82;21477;-78
2021/05/30 01:13:36;;;;;;;18.00;11.87;;;;;;;8.80;70.10;99229.44;2178540;82;20977;-78
2021/05/30 01:16:37;;;;;;;16.70;11.33;;;;;;;8.63;69.75;99230.28;2178361;82;21370;-79
2021/05/30 01:19:39;;;;;;;16.70;12.93;;;;;;;8.48;70.10;99231.60;2178416;82;21001;-80
2021/05/30 01:22:40;;;;;;;19.60;15.50;;;;;;;8.41;70.55;99225.78;2178451;82;21382;-79
2021/05/30 01:25:41;;;;;;;17.97;13.87;;;;;;;8.42;71.16;99228.84;2178480;82;21001;-79
2021/05/30 01:28:42;;;;;;;16.97;14.33;;;;;;;8.42;71.33;99227.54;2178571;81;20977;-80
2021/05/30 01:31:43;;;;;;;20.70;14.43;;;;;;;8.40;71.23;99232.70;2178809;82;20950;-79
2021/05/30 01:34:44;;;;;;;17.77;13.27;;;;;;;8.40;71.47;99231.83;2178671;81;20977;-78
2021/05/30 01:37:45;;;;;;;18.97;14.17;;;;;;;8.31;70.88;99233.30;2178501;81;20986;-78
2021/05/30 01:40:47;;;;;;;19.37;15.20;;;;;;;8.26;71.45;99232.30;2178601;82;21041;-78
2021/05/30 01:43:48;;;;;;;20.23;14.37;;;;;;;8.23;71.37;99226.14;2178696;82;21318;-78
2021/05/30 01:46:49;;;;;;;26.97;17.53;;;;;;;8.22;71.51;99226.55;2178652;81;21081;-79
2021/05/30 01:49:50;;;;;;;26.83;15.87;;;;;;;8.23;72.33;99227.02;2178654;81;21385;-79
2021/05/30 01:52:51;;;;;;;25.93;17.93;;;;;;;8.27;72.58;99230.58;2178793;82;21314;-78
2021/05/30 01:58:55;;;;;;;20.53;16.37;;;;;;;8.34;73.14;99229.94;2157899;82;21047;-78
2021/05/30 02:01:56;;;;;;;24.57;16.77;;;;;;;8.35;73.06;99230.41;2161046;82;21042;-79
2021/05/30 02:04:57;;;;;;;23.07;16.83;;;;;;;8.40;73.30;99235.72;2160952;82;20975;-78
2021/05/30 02:07:58;;;;;;;23.63;17.80;;;;;;;8.41;73.84;99234.88;2161147;82;21034;-79
2021/05/30 02:10:59;;;;;;;23.80;16.33;;;;;;;8.40;74.16;99239.63;2161017;82;21046;-79
2021/05/30 02:14:00;;;;;;;25.00;18.63;;;;;;;8.33;73.65;99234.68;2161032;82;21383;-77
2021/05/30 02:17:01;;;;;;;32.80;19.70;;;;;;;8.29;74.30;99233.69;2160930;82;21010;-80
2021/05/30 02:20:02;;;;;;;24.90;17.53;;;;;;;8.26;74.41;99227.52;2161165;82;21335;-78
2021/05/30 02:23:03;;;;;;;39.00;18.87;;;;;;;8.23;74.38;99229.62;2161188;82;21003;-77
2021/05/30 02:26:04;;;;;;;32.37;17.83;;;;;;;8.22;74.15;99222.66;2160839;82;21530;-79
2021/05/30 02:29:05;;;;;;;30.40;18.27;;;;;;;8.21;73.74;99223.50;2160983;82;20967;-77
2021/05/30 02:32:06;;;;;;;25.70;17.00;;;;;;;8.17;74.27;99221.65;2160988;82;21037;-78
2021/05/30 02:35:06;;;;;;;25.23;17.10;;;;;;;8.13;74.55;99226.30;2160821;82;20963;-78
2021/05/30 02:38:08;;;;;;;668.27;436.03;;;;;;;8.12;74.03;99224.55;2162771;82;20990;-81
2021/05/30 02:41:09;;;;;;;145.20;88.20;;;;;;;10.20;82.49;99222.60;2162517;82;20964;-79
2021/05/30 02:44:10;;;;;;;47.40;26.93;;;;;;;12.61;75.14;99223.18;2161399;82;20994;-78
2021/05/30 02:47:11;;;;;;;93.70;21.97;;;;;;;12.13;68.42;99227.00;2161606;82;21088;-80
2021/05/30 02:50:12;;;;;;;24.33;18.43;;;;;;;11.18;67.52;99239.58;2161438;82;21326;-79
2021/05/30 02:53:12;;;;;;;240.73;22.53;;;;;;;10.52;67.37;99248.03;2161576;82;21335;-79
2021/05/30 02:56:14;;;;;;;262.10;19.73;;;;;;;9.97;68.85;99253.84;2161353;82;21121;-79
2021/05/30 02:59:15;;;;;;;168.27;18.47;;;;;;;9.47;69.83;99258.38;2161586;82;21323;-79
2021/05/30 03:02:16;;;;;;;110.63;16.67;;;;;;;9.07;70.27;99260.89;2161476;82;21323;-79
2021/05/30 03:05:17;;;;;;;34.07;16.37;;;;;;;8.74;71.06;99261.81;2161301;82;21351;-82
2021/05/30 03:08:18;;;;;;;56.93;13.97;;;;;;;8.55;71.39;99262.14;2161299;82;20983;-78
2021/05/30 03:11:19;;;;;;;29.33;14.13;;;;;;;8.45;71.75;99265.34;2161374;82;21364;-78
2021/05/30 03:14:20;;;;;;;21.83;14.60;;;;;;;8.31;71.87;99270.14;2161375;82;20998;-79
2021/05/30 03:17:20;;;;;;;22.33;13.37;;;;;;;8.26;72.28;99264.81;2161393;82;21362;-79
2021/05/30 03:20:21;;;;;;;14.63;13.10;;;;;;;8.27;72.55;99265.27;2161612;82;20962;-79
2021/05/30 03:23:22;;;;;;;18.77;14.30;;;;;;;8.36;72.25;99271.60;2161545;82;21314;-79
2021/05/30 03:26:25;;;;;;;17.80;14.00;;;;;;;8.43;72.62;99274.83;2161462;82;21125;-79
2021/05/30 03:29:25;;;;;;;20.23;14.47;;;;;;;8.45;72.61;99275.75;2161507;82;21590;-80
2021/05/30 03:32:27;;;;;;;19.33;14.83;;;;;;;8.46;72.72;99277.52;2161530;82;21022;-78
2021/05/30 03:35:27;;;;;;;16.07;14.00;;;;;;;8.47;72.94;99280.16;2161186;82;21034;-80
2021/05/30 03:38:31;;;;;;;16.10;13.60;;;;;;;8.53;73.01;99279.02;2161455;82;20934;-80
2021/05/30 03:41:34;;;;;;;17.63;12.33;;;;;;;8.62;72.55;99282.28;2161370;82;20990;-80
2021/05/30 03:44:34;;;;;;;13.37;11.70;;;;;;;8.74;72.44;99285.23;2161114;81;20946;-78
2021/05/30 03:47:35;;;;;;;13.73;11.80;;;;;;;8.78;72.09;99282.30;2161282;82;20994;-80
2021/05/30 03:50:36;;;;;;;16.70;12.83;;;;;;;8.80;72.05;99278.89;2161411;82;20974;-79
2021/05/30 03:53:36;;;;;;;18.10;13.50;;;;;;;8.85;71.91;99271.20;2161077;82;20977;-78
2021/05/30 03:56:38;;;;;;;17.13;13.30;;;;;;;8.93;71.96;99269.25;2169894;81;21072;-79
2021/05/30 03:59:38;;;;;;;21.27;13.90;;;;;;;9.02;71.84;99271.20;2178593;81;20970;-79
2021/05/30 04:02:39;;;;;;;16.43;13.57;;;;;;;9.04;71.84;99269.94;2178687;81;21009;-78
2021/05/30 04:05:40;;;;;;;16.33;12.20;;;;;;;9.10;71.81;99272.69;2178517;82;21002;-79
2021/05/30 04:08:41;;;;;;;15.57;12.70;;;;;;;9.12;71.62;99267.09;2178536;81;20957;-80
2021/05/30 04:11:42;;;;;;;15.37;12.97;;;;;;;9.18;71.60;99267.24;2178626;82;20962;-79
2021/05/30 04:14:43;;;;;;;15.97;13.53;;;;;;;9.28;71.72;99261.41;2178388;82;20982;-79
2021/05/30 04:17:44;;;;;;;18.20;15.33;;;;;;;9.44;71.81;99263.95;2178629;82;21006;-79
2021/05/30 04:20:45;;;;;;;19.93;15.03;;;;;;;9.63;71.93;99259.63;2178835;81;21033;-80
2021/05/30 04:23:46;;;;;;;17.87;14.87;;;;;;;9.78;72.06;99252.57;2178757;82;21362;-79
2021/05/30 04:26:47;;;;;;;21.23;16.67;;;;;;;10.19;72.12;99258.21;2178881;82;21065;-79
2021/05/30 04:29:48;;;;;;;20.17;15.77;;;;;;;10.58;71.80;99248.56;2179086;82;21346;-79
2021/05/30 04:32:49;;;;;;;17.03;14.80;;;;;;;10.82;71.31;99249.88;2178822;81;21361;-78
2021/05/30 04:35:50;;;;;;;17.92;15.93;;;;;;;11.05;70.84;99250.69;2178799;82;21025;-79
2021/05/30 04:38:51;;;;;;;17.30;15.50;;;;;;;11.30;70.50;99260.70;2178760;82;21014;-79
2021/05/30 04:41:52;;;;;;;15.85;14.23;;;;;;;11.52;69.75;99259.72;2178831;81;21033;-78
2021/05/30 04:44:53;;;;;;;13.18;11.78;;;;;;;11.59;69.25;99268.11;2178640;81;21044;-78
2021/05/30 04:47:54;;;;;;;14.80;12.98;;;;;;;11.70;68.96;99263.91;2178732;81;20961;-76
2021/05/30 04:51:13;;;;;;;12.93;11.50;;;;;;;12.09;68.82;99268.38;2178413;81;21033;-76
2021/05/30 04:54:10;;;;;;;;;;;;;;;12.52;67.83;99270.66;2180345;82;21085;-76
2021/05/30 04:57:11;;;;;;;11.48;10.38;;;;;;;12.82;67.41;99270.97;2167981;82;20206;-75
2021/05/30 05:00:13;;;;;;;12.75;10.20;;;;;;;12.88;66.78;99267.52;2161109;82;21017;-76
2021/05/30 05:03:14;;;;;;;9.45;8.48;;;;;;;12.99;66.68;99275.05;2161056;82;21085;-75
2021/05/30 05:06:15;;;;;;;9.28;8.25;;;;;;;13.08;66.47;99273.42;2161153;82;21114;-75
2021/05/30 05:09:16;;;;;;;9.10;8.20;;;;;;;13.17;65.65;99276.58;2161221;82;21058;-76
2021/05/30 05:12:17;;;;;;;9.93;7.45;;;;;;;13.10;65.64;99272.55;2161240;82;21382;-75
2021/05/30 05:15:19;;;;;;;7.95;7.12;;;;;;;12.90;66.04;99276.28;2161122;82;21018;-75
2021/05/30 05:18:20;;;;;;;8.28;7.47;;;;;;;12.45;66.60;99281.48;2161228;82;21409;-76
2021/05/30 05:21:21;;;;;;;10.23;7.03;;;;;;;12.30;67.07;99282.63;2161232;82;20982;-76
2021/05/30 05:24:21;;;;;;;8.85;7.10;;;;;;;12.11;67.98;99288.91;2160990;82;21373;-76
2021/05/30 05:27:23;;;;;;;7.72;6.55;;;;;;;11.95;68.19;99295.23;2161166;82;21499;-77
2021/05/30 05:30:23;;;;;;;8.55;6.65;;;;;;;11.78;68.60;99295.00;2161022;82;21065;-76
2021/05/30 05:33:24;;;;;;;7.12;6.42;;;;;;;11.71;68.82;99295.73;2161047;82;21009;-75
2021/05/30 05:36:25;;;;;;;9.48;6.70;;;;;;;11.77;68.71;99307.59;2160980;82;21069;-76
2021/05/30 05:39:26;;;;;;;6.97;6.22;;;;;;;11.78;68.86;99301.54;2161098;82;21030;-76
2021/05/30 05:42:27;;;;;;;6.95;6.00;;;;;;;11.68;68.45;99306.16;2161074;82;20934;-74
2021/05/30 05:45:28;;;;;;;7.15;6.42;;;;;;;11.63;68.96;99311.74;2160852;82;21078;-76
2021/05/30 05:48:29;;;;;;;8.50;6.20;;;;;;;11.63;68.97;99311.74;2161103;82;20969;-76
2021/05/30 05:51:30;;;;;;;7.50;6.05;;;;;;;11.79;68.97;99309.84;2161099;82;20982;-76
2021/05/30 05:54:31;;;;;;;9.73;6.37;;;;;;;11.88;68.57;99313.89;2160818;82;20994;-75
2021/05/30 05:57:32;;;;;;;7.87;7.12;;;;;;;11.82;68.19;99313.80;2171506;81;21030;-76
2021/05/30 06:00:33;;;;;;;6.80;6.10;;;;;;;11.81;68.31;99317.27;2178365;82;20946;-77
2021/05/30 06:03:34;;;;;;;6.17;5.58;;;;;;;11.92;68.11;99323.53;2178293;82;21012;-76
2021/05/30 06:06:35;;;;;;;5.95;5.45;;;;;;;11.93;67.62;99327.03;2178352;82;20994;-76
2021/05/30 06:09:36;;;;;;;5.97;5.37;;;;;;;11.95;67.62;99326.20;2178356;82;20990;-76
2021/05/30 06:12:37;;;;;;;5.92;5.37;;;;;;;11.90;67.56;99320.45;2178333;82;20986;-76
2021/05/30 06:15:39;;;;;;;8.38;5.90;;;;;;;11.80;68.03;99335.13;2178295;82;21045;-77
2021/05/30 06:18:40;;;;;;;6.55;5.92;;;;;;;11.72;68.41;99343.26;2178589;82;21076;-77
2021/05/30 06:21:41;;;;;;;8.78;5.45;;;;;;;11.67;68.39;99344.92;2178714;82;20973;-76
2021/05/30 06:24:42;;;;;;;7.62;6.37;;;;;;;11.60;68.87;99346.56;2178358;82;21025;-76
2021/05/30 06:27:43;;;;;;;6.47;5.87;;;;;;;11.51;68.70;99353.38;2178703;82;21049;-77
2021/05/30 06:30:44;;;;;;;6.85;5.05;;;;;;;11.39;68.92;99352.75;2178575;82;21113;-77
2021/05/30 06:33:45;;;;;;;6.27;5.17;;;;;;;11.37;69.32;99356.66;2178396;82;21029;-77
2021/05/30 06:36:47;;;;;;;7.80;5.37;;;;;;;11.36;69.04;99364.04;2178650;82;21009;-76
2021/05/30 06:39:48;;;;;;;6.13;5.53;;;;;;;11.34;69.36;99368.36;2178628;82;20971;-76
2021/05/30 06:42:49;;;;;;;9.60;6.30;;;;;;;11.36;69.66;99366.66;2178672;82;20979;-77
2021/05/30 06:45:50;;;;;;;6.50;5.80;;;;;;;11.36;69.61;99360.55;2178478;82;21077;-76
2021/05/30 06:48:51;;;;;;;6.50;5.57;;;;;;;11.42;70.14;99373.30;2178564;82;20997;-77
2021/05/30 06:51:52;;;;;;;7.13;6.27;;;;;;;11.48;70.40;99375.13;2178535;82;21021;-76
2021/05/30 06:54:53;;;;;;;10.23;6.80;;;;;;;11.45;70.86;99377.27;2178382;82;21001;-76
2021/05/30 06:57:54;;;;;;;7.57;6.40;;;;;;;11.42;70.74;99376.33;2178390;81;21125;-75
2021/05/30 07:00:55;;;;;;;6.03;5.33;;;;;;;11.34;71.20;99376.20;2178646;82;20966;-76
2021/05/30 07:03:56;;;;;;;7.40;5.90;;;;;;;11.26;71.88;99376.89;2178546;82;20946;-76
2021/05/30 07:06:57;;;;;;;6.40;5.80;;;;;;;11.24;72.03;99374.25;2178670;82;20978;-75
2021/05/30 07:09:58;;;;;;;8.90;6.13;;;;;;;11.28;71.92;99372.18;2178645;82;21380;-75
2021/05/30 07:12:59;;;;;;;6.47;5.67;;;;;;;11.31;71.98;99374.84;2178517;82;20965;-76
2021/05/30 07:16:00;;;;;;;6.60;5.83;;;;;;;11.60;71.37;99371.83;2178480;82;21005;-76
2021/05/30 07:19:01;;;;;;;6.95;6.25;;;;;;;12.01;70.64;99366.84;2178679;82;20961;-76
2021/05/30 07:22:02;;;;;;;7.50;6.33;;;;;;;12.39;70.28;99373.05;2178476;82;20962;-76
2021/05/30 07:25:03;;;;;;;6.83;6.25;;;;;;;12.79;69.09;99372.22;2178419;82;20986;-76
2021/05/30 07:28:04;;;;;;;5.37;4.87;;;;;;;13.13;68.74;99374.37;2177758;82;21092;-77
2021/05/30 07:31:05;;;;;;;6.12;5.28;;;;;;;13.46;68.07;99365.97;2178134;82;20986;-76
2021/05/30 07:34:06;;;;;;;6.03;5.47;;;;;;;13.83;67.07;99368.44;2178328;82;20990;-77
2021/05/30 07:37:07;;;;;;;8.48;7.60;;;;;;;14.03;66.78;99364.67;2178623;82;21358;-76
2021/05/30 07:40:08;;;;;;;4.92;4.15;;;;;;;14.14;66.01;99362.11;2178676;82;21330;-76
2021/05/30 07:43:09;;;;;;;5.03;4.10;;;;;;;14.11;65.67;99367.34;2178394;82;21307;-76
2021/05/30 07:46:10;;;;;;;5.25;4.75;;;;;;;14.24;65.94;99373.11;2178616;82;20970;-76
2021/05/30 07:49:11;;;;;;;4.83;4.37;;;;;;;14.27;64.69;99367.44;2178475;82;20985;-77
2021/05/30 07:52:12;;;;;;;5.45;4.03;;;;;;;14.47;64.84;99361.00;2178718;82;21077;-76
2021/05/30 07:55:13;;;;;;;4.62;4.00;;;;;;;14.88;64.38;99365.12;2178612;82;21065;-77
2021/05/30 07:58:15;;;;;;;3.55;3.27;;;;;;;15.16;63.17;99359.92;2178459;81;21040;-77
2021/05/30 08:01:16;;;;;;;3.10;2.90;;;;;;;15.36;62.89;99358.20;2178768;82;21025;-76
2021/05/30 08:04:17;;;;;;;3.45;2.95;;;;;;;15.51;61.07;99358.20;2178594;82;21085;-76
2021/05/30 08:07:21;;;;;;;3.50;3.20;;;;;;;15.50;59.90;99359.52;2178712;82;21365;-77
2021/05/30 08:10:22;;;;;;;3.00;2.80;;;;;;;15.62;60.02;99355.63;2178576;82;20994;-77
2021/05/30 08:13:23;;;;;;;2.80;2.60;;;;;;;15.91;60.21;99355.17;2178375;82;20970;-78
2021/05/30 08:16:24;;;;;;;3.00;2.80;;;;;;;15.86;59.67;99360.87;2178411;82;20997;-77
2021/05/30 08:19:26;;;;;;;3.25;2.95;;;;;;;15.92;58.82;99360.87;2178429;82;21028;-78
2021/05/30 08:22:27;;;;;;;3.75;2.47;;;;;;;15.98;58.36;99360.42;2178510;82;21037;-77
2021/05/30 08:25:28;;;;;;;3.58;3.10;;;;;;;16.06;59.17;99367.87;2178390;82;21009;-77
2021/05/30 08:28:29;;;;;;;3.02;2.72;;;;;;;16.05;57.71;99363.04;2178516;82;21082;-76
2021/05/30 08:31:30;;;;;;;2.60;2.40;;;;;;;15.94;58.86;99370.08;2178819;82;20958;-76
2021/05/30 08:34:31;;;;;;;2.77;2.58;;;;;;;16.00;58.55;99361.30;2178354;82;21021;-76
2021/05/30 08:37:32;;;;;;;2.92;2.72;;;;;;;15.96;58.89;99367.45;2178770;82;20993;-76
2021/05/30 08:40:33;;;;;;;3.25;2.95;;;;;;;16.06;58.15;99362.16;2178548;82;20970;-76
2021/05/30 08:43:34;;;;;;;3.02;2.83;;;;;;;16.23;57.83;99366.07;2178274;82;21033;-77
2021/05/30 08:46:35;;;;;;;2.60;2.40;;;;;;;16.16;57.17;99363.89;2178556;82;20958;-77
2021/05/30 08:53:16;;;;;;;2.65;2.45;;;;;;;16.59;55.77;99366.42;2305175;77;23561;-76
2021/05/30 08:56:17;;;;;;;2.80;2.40;;;;;;;16.72;54.39;99351.46;2250198;78;21005;-77
2021/05/30 08:59:20;;;;;;;2.67;2.47;;;;;;;16.92;55.00;99360.59;2183524;81;21065;-76
2021/05/30 09:02:21;;;;;;;3.15;2.60;;;;;;;17.15;54.66;99362.20;2169149;81;21048;-76
2021/05/30 09:05:23;;;;;;;3.50;2.50;;;;;;;17.42;53.21;99357.65;2158715;81;21019;-76
2021/05/30 09:08:24;;;;;;;2.37;2.17;;;;;;;17.38;52.42;99345.37;2163321;81;21012;-76
2021/05/30 09:11:25;;;;;;;3.25;2.45;;;;;;;17.31;53.16;99356.38;2162171;81;21033;-76
2021/05/30 09:14:32;;;;;;;1.90;1.80;;;;;;;17.68;52.51;99356.16;2183309;82;21024;-76
2021/05/30 09:17:32;;;;;;;2.15;1.95;;;;;;;17.70;50.47;99349.09;2168692;81;21096;-77
2021/05/30 09:20:33;;;;;;;2.00;1.90;;;;;;;17.32;50.07;99374.41;2168906;81;21112;-77
2021/05/30 09:23:34;;;;;;;3.98;1.70;;;;;;;17.32;51.36;99362.53;2189298;80;21004;-77
2021/05/30 09:26:35;;;;;;;2.02;1.92;;;;;;;17.69;50.81;99357.91;2165389;81;21103;-76
2021/05/30 09:29:36;;;;;;;2.05;1.95;;;;;;;17.92;49.50;99355.05;2182219;81;21013;-76
2021/05/30 09:32:37;;;;;;;2.20;1.72;;;;;;;18.40;47.19;99359.84;2168343;81;21100;-76
2021/05/30 09:35:38;;;;;;;2.00;1.90;;;;;;;18.04;47.90;99354.93;2188501;80;21377;-76
2021/05/30 09:38:39;;;;;;;2.52;2.12;;;;;;;17.69;48.01;99359.22;2189233;81;21077;-76
2021/05/30 09:41:39;;;;;;;4.90;2.05;;;;;;;17.60;49.03;99357.50;2179134;81;21080;-77
2021/05/30 09:44:41;;;;;;;2.67;2.30;;;;;;;18.09;48.52;99366.33;2178324;81;20984;-75
2021/05/30 09:47:43;;;;;;;2.10;1.90;;;;;;;17.97;47.32;99359.84;2177867;81;21400;-76
2021/05/30 09:51:02;;;;;;;2.15;1.98;;;;;;;17.41;47.71;99362.50;2192170;81;21124;-76
2021/05/30 09:53:47;;;;;;;3.55;2.02;;;;;;;17.45;48.62;99364.23;2177765;81;21011;-76
2021/05/30 09:56:48;;;;;;;2.90;1.87;;;;;;;17.93;47.73;99360.77;2190476;81;21357;-76
2021/05/30 09:59:48;;;;;;;8.33;1.98;;;;;;;18.42;47.00;99353.22;2187543;81;21361;-76
2021/05/30 10:02:50;;;;;;;1.87;1.70;;;;;;;18.91;46.51;99349.54;2189756;81;21040;-76
2021/05/30 10:05:51;;;;;;;2.42;1.92;;;;;;;18.72;45.62;99353.33;2178749;81;21392;-76
2021/05/30 10:08:52;;;;;;;2.30;2.10;;;;;;;18.74;44.96;99356.38;2182186;81;21416;-76
2021/05/30 10:11:53;;;;;;;3.83;1.82;;;;;;;19.01;45.69;99353.80;2189281;81;21017;-76
2021/05/30 10:14:54;;;;;;;1.72;1.62;;;;;;;19.43;43.34;99350.57;2186272;81;21088;-77
2021/05/30 10:17:55;;;;;;;4.05;2.00;;;;;;;19.80;43.96;99358.81;2186506;81;21052;-77
2021/05/30 10:20:56;;;;;;;1.85;1.70;;;;;;;19.61;41.41;99355.16;2175073;81;21421;-76
2021/05/30 10:23:58;;;;;;;4.03;2.00;;;;;;;19.24;42.42;99355.27;2191235;81;21156;-76
2021/05/30 10:26:59;;;;;;;2.30;2.10;;;;;;;19.40;43.35;99348.84;2180546;81;21487;-76
2021/05/30 10:30:00;;;;;;;1.80;1.70;;;;;;;19.17;41.54;99351.84;2189317;81;21025;-76
2021/05/30 10:33:01;;;;;;;2.17;1.70;;;;;;;19.15;43.07;99353.64;2190076;81;21493;-76
2021/05/30 10:36:02;;;;;;;1.87;1.72;;;;;;;19.88;42.62;99348.95;2173842;81;21059;-76
2021/05/30 10:39:03;;;;;;;1.77;1.67;;;;;;;19.92;40.37;99349.33;2171541;81;21008;-76
2021/05/30 10:42:04;;;;;;;1.77;1.42;;;;;;;19.85;41.51;99350.34;2177835;81;21148;-76
2021/05/30 10:45:05;;;;;;;5.05;1.75;;;;;;;19.75;40.40;99356.70;2184423;81;21008;-77
2021/05/30 10:48:06;;;;;;;4.28;2.62;;;;;;;19.34;40.59;99351.59;2175599;81;21026;-78
2021/05/30 10:54:13;;;;;;;1.98;1.82;;;;;;;19.40;42.51;99354.14;2154217;81;21097;-76
2021/05/30 10:57:12;;;;;;;2.10;1.90;;;;;;;19.21;42.29;99355.32;2183993;81;21449;-76
2021/05/30 11:00:13;;;;;;;1.92;1.70;;;;;;;18.84;41.16;99356.25;2181189;81;21033;-76
2021/05/30 11:03:14;;;;;;;1.70;1.60;;;;;;;18.44;42.42;99369.49;2179157;81;21080;-76
2021/05/30 11:06:15;;;;;;;2.42;2.05;;;;;;;18.17;43.69;99356.55;2175127;81;21000;-76
2021/05/30 11:09:16;;;;;;;2.85;1.75;;;;;;;18.12;43.98;99359.69;2174386;81;20984;-76
2021/05/30 11:12:16;;;;;;;1.65;1.55;;;;;;;18.09;44.31;99359.27;2163221;81;21041;-76
2021/05/30 11:15:18;;;;;;;1.70;1.60;;;;;;;18.09;44.65;99356.63;2184058;81;21013;-76
2021/05/30 11:18:19;;;;;;;2.92;1.80;;;;;;;18.09;43.95;99357.95;2189705;81;21108;-76
2021/05/30 11:21:20;;;;;;;3.45;1.90;;;;;;;18.45;43.64;99351.42;2186858;81;21384;-77
2021/05/30 11:24:21;;;;;;;1.60;1.50;;;;;;;18.62;43.32;99366.23;2186767;81;21021;-76
2021/05/30 11:27:22;;;;;;;4.53;2.10;;;;;;;18.72;43.25;99359.94;2179175;81;21016;-76
2021/05/30 11:30:24;;;;;;;5.78;2.12;;;;;;;18.86;42.95;99359.75;2193479;81;21128;-76
2021/05/30 11:33:25;;;;;;;2.62;2.10;;;;;;;19.02;43.61;99351.59;2194209;81;21116;-77
2021/05/30 11:36:27;;;;;;;1.77;1.67;;;;;;;18.94;42.63;99351.27;2183780;81;21088;-76
2021/05/30 11:39:28;;;;;;;3.10;1.60;;;;;;;18.84;43.51;99350.52;2183809;81;21018;-76
2021/05/30 11:42:28;;;;;;;5.83;1.62;;;;;;;18.83;41.98;99345.25;2182046;81;21100;-76
2021/05/30 11:45:30;;;;;;;2.02;1.80;;;;;;;18.76;42.51;99349.75;2186917;81;20989;-77
2021/05/30 11:48:31;;;;;;;2.35;1.60;;;;;;;19.01;42.46;99337.94;2181599;81;20993;-76
2021/05/30 11:51:31;;;;;;;1.70;1.60;;;;;;;19.56;40.39;99350.38;2167998;81;21040;-77
2021/05/30 11:54:32;;;;;;;1.70;1.60;;;;;;;19.30;40.28;99345.92;2178462;81;21020;-77
2021/05/30 11:57:33;;;;;;;1.82;1.72;;;;;;;18.63;41.95;99350.80;2180822;81;21085;-77
2021/05/30 12:00:34;;;;;;;3.17;1.80;;;;;;;18.24;42.68;99354.75;2168478;81;21360;-77
2021/05/30 12:03:35;;;;;;;2.00;1.77;;;;;;;17.91;43.63;99359.91;2176395;81;21112;-76
2021/05/30 12:06:36;;;;;;;2.12;1.80;;;;;;;17.57;44.09;99358.84;2190610;81;21377;-77
2021/05/30 12:09:37;;;;;;;1.92;1.72;;;;;;;17.27;44.84;99368.28;2181518;81;21348;-75
2021/05/30 12:12:38;;;;;;;2.85;1.82;;;;;;;17.04;45.57;99364.03;2180705;81;21382;-77
2021/05/30 12:15:41;;;;;;;1.90;1.80;;;;;;;16.95;44.85;99380.34;2174574;81;21084;-77
2021/05/30 12:18:42;;;;;;;3.83;1.50;;;;;;;16.85;45.00;99371.16;2179586;81;21104;-76
2021/05/30 12:21:43;;;;;;;1.52;1.42;;;;;;;16.92;44.70;99378.60;2172496;81;21056;-77
2021/05/30 12:24:44;;;;;;;1.70;1.60;;;;;;;16.94;44.63;99373.32;2180807;81;21055;-77
2021/05/30 12:27:45;;;;;;;3.35;1.80;;;;;;;17.00;44.39;99378.12;2184496;81;21381;-76
2021/05/30 12:30:46;;;;;;;2.08;1.67;;;;;;;17.14;44.34;99374.95;2186416;81;21036;-78
2021/05/30 12:33:47;;;;;;;3.10;1.65;;;;;;;17.23;43.03;99373.14;2174773;81;21075;-76
2021/05/30 12:36:48;;;;;;;1.92;1.57;;;;;;;17.35;43.58;99376.61;2181405;81;21397;-77
2021/05/30 12:39:49;;;;;;;2.25;1.47;;;;;;;17.41;43.14;99367.77;2168444;81;21056;-76
2021/05/30 12:42:50;;;;;;;1.70;1.50;;;;;;;17.48;42.88;99376.95;2183272;81;21388;-76
2021/05/30 12:45:51;;;;;;;6.92;1.37;;;;;;;17.51;41.41;99372.09;2174781;81;21063;-77
2021/05/30 12:48:52;;;;;;;3.27;1.70;;;;;;;17.68;40.55;99367.59;2180063;81;21363;-76
2021/05/30 12:51:53;;;;;;;2.12;1.50;;;;;;;17.86;40.56;99374.91;2174456;81;21145;-76
2021/05/30 12:54:54;;;;;;;1.85;1.75;;;;;;;17.98;40.74;99370.84;2187183;81;21362;-76
2021/05/30 12:57:56;;;;;;;1.90;1.80;;;;;;;18.06;41.06;99363.72;2187781;81;21352;-76
2021/05/30 13:00:57;;;;;;;2.95;2.10;;;;;;;18.15;40.40;99370.22;2174742;81;21492;-77
2021/05/30 13:03:58;;;;;;;2.17;1.75;;;;;;;18.12;40.70;99365.84;2179243;81;21059;-77
2021/05/30 13:06:59;;;;;;;3.35;2.08;;;;;;;18.11;41.27;99365.86;2191136;81;21441;-77
2021/05/30 13:10:01;;;;;;;1.93;1.63;;;;;;;18.19;41.48;99366.66;2194182;81;21108;-77
2021/05/30 13:13:02;;;;;;;2.75;2.55;;;;;;;18.25;40.72;99356.50;2190478;81;21120;-77
2021/05/30 13:16:03;;;;;;;2.80;2.20;;;;;;;18.24;40.90;99365.32;2192370;81;21104;-76
2021/05/30 13:19:04;;;;;;;2.02;1.92;;;;;;;18.18;41.28;99366.23;2188831;81;21005;-77
2021/05/30 13:22:05;;;;;;;2.33;1.98;;;;;;;18.23;41.69;99357.84;2179218;81;21061;-78
2021/05/30 13:25:06;;;;;;;2.33;2.12;;;;;;;18.30;41.75;99359.52;2174237;81;21003;-77
2021/05/30 13:28:07;;;;;;;2.62;2.10;;;;;;;18.49;42.35;99355.34;2186486;81;21009;-76
2021/05/30 13:31:09;;;;;;;2.10;2.00;;;;;;;18.44;41.29;99356.72;2189226;81;21026;-77
2021/05/30 13:34:10;;;;;;;2.45;2.25;;;;;;;18.51;42.33;99353.56;2190538;81;21373;-77
2021/05/30 13:37:10;;;;;;;2.02;1.90;;;;;;;18.70;42.80;99352.47;2187435;81;21001;-77
2021/05/30 13:40:11;;;;;;;2.42;2.20;;;;;;;18.80;42.09;99355.42;2179673;81;20984;-76
2021/05/30 13:43:13;;;;;;;3.65;1.90;;;;;;;18.83;41.39;99352.73;2190712;81;21025;-77
2021/05/30 13:46:14;;;;;;;1.80;1.70;;;;;;;18.81;40.46;99353.20;2178352;81;21052;-77
2021/05/30 13:49:15;;;;;;;1.77;1.30;;;;;;;18.74;40.91;99351.53;2177770;81;21388;-76
2021/05/30 13:52:17;;;;;;;1.70;1.60;;;;;;;18.60;39.17;99356.97;2189477;81;21488;-77
2021/05/30 13:55:17;;;;;;;2.22;1.60;;;;;;;18.52;39.08;99351.34;2178845;81;20996;-77
2021/05/30 14:01:21;;;;;;;2.10;1.67;;;;;;;18.59;37.67;99351.25;2150890;81;21322;-76
2021/05/30 14:04:22;;;;;;;1.85;1.70;;;;;;;18.62;39.30;99353.02;2168482;81;21015;-76
2021/05/30 14:07:23;;;;;;;2.22;1.60;;;;;;;18.61;39.41;99352.55;2186942;81;20992;-76
2021/05/30 14:10:24;;;;;;;2.45;1.72;;;;;;;18.57;39.37;99352.16;2178378;81;20981;-77
2021/05/30 14:13:25;;;;;;;3.02;1.75;;;;;;;18.40;39.57;99348.41;2188746;81;21002;-77
2021/05/30 14:16:27;;;;;;;7.33;1.80;;;;;;;18.19;39.85;99361.37;2174706;81;20992;-77
2021/05/30 14:19:28;;;;;;;2.72;2.20;;;;;;;18.01;40.71;99352.32;2190236;81;21489;-76